Latest Weather Observations for Banana Bank

IDQ60901

Issued at 6:41 am EST Friday 22 October 2021 (issued every 10 minutes, with the page automatically refreshed every 10 minutes)

About weather observations | Map of Brisbane area stations | Latest observations for Brisbane area | Other Formats
Station Details ID: 040925 Name: BANANA BANK NORTH BEACON Lat: -27.53 Lon: 153.33 Height: 7.0 m
Data from the previous 72 hours. | See also: Recent months at Banana Bank
Date/Time
EST
Temp
°C
App
Temp
°C
Dew
Point
°C
Rel
Hum
%
Delta-T
°C
Wind Press
QNH
hPa
Press
MSL
hPa
Rain since
9am
mm
Dir  Spd
km/h
Gust
km/h
Spd
kts
Gust
kts
22/06:30am - - - - - NNE 13 17 7 9 - - -
22/06:00am - - - - - N 11 13 6 7 - - -
22/05:30am - - - - - N 11 13 6 7 - - -
22/05:00am - - - - - NNE 7 9 4 5 - - -
22/04:30am - - - - - NNE 11 13 6 7 - - -
22/04:00am - - - - - NE 13 17 7 9 - - -
22/03:30am - - - - - NE 11 13 6 7 - - -
22/03:00am - - - - - NE 9 13 5 7 - - -
22/02:30am - - - - - NE 13 15 7 8 - - -
22/02:00am - - - - - NNE 9 11 5 6 - - -
22/01:30am - - - - - NE 11 15 6 8 - - -
22/01:00am - - - - - NE 17 20 9 11 - - -
22/12:30am - - - - - NE 15 19 8 10 - - -
22/12:00am - - - - - ENE 15 19 8 10 - - -
 
Date/Time
EST
Temp
°C
App
Temp
°C
Dew
Point
°C
Rel
Hum
%
Delta-T
°C
Wind Press
QNH
hPa
Press
MSL
hPa
Rain since
9am
mm
Dir  Spd
km/h
Gust
km/h
Spd
kts
Gust
kts
21/11:30pm - - - - - ENE 11 17 6 9 - - -
21/11:00pm - - - - - NE 13 17 7 9 - - -
21/10:30pm - - - - - E 13 15 7 8 - - -
21/10:00pm - - - - - ENE 7 9 4 5 - - -
21/09:30pm - - - - - ENE 11 13 6 7 - - -
21/09:00pm - - - - - NE 9 13 5 7 - - -
21/08:30pm - - - - - ENE 13 17 7 9 - - -
21/08:00pm - - - - - ENE 17 20 9 11 - - -
21/07:30pm - - - - - NE 15 19 8 10 - - -
21/07:00pm - - - - - E 6 9 3 5 - - -
21/06:30pm - - - - - NNE 2 4 1 2 - - -
21/06:00pm - - - - - ENE 9 13 5 7 - - -
21/05:30pm - - - - - E 15 17 8 9 - - -
21/05:00pm - - - - - ENE 15 19 8 10 - - -
21/04:30pm - - - - - NE 17 20 9 11 - - -
21/04:00pm - - - - - ENE 19 24 10 13 - - -
21/03:30pm - - - - - NE 22 28 12 15 - - -
21/03:00pm - - - - - NE 22 28 12 15 - - -
21/02:30pm - - - - - NE 26 30 14 16 - - -
21/02:00pm - - - - - ENE 24 30 13 16 - - -
21/01:30pm - - - - - ENE 26 32 14 17 - - -
21/01:00pm - - - - - E 26 32 14 17 - - -
21/12:30pm - - - - - ESE 28 35 15 19 - - -
21/12:00pm - - - - - ESE 32 37 17 20 - - -
21/11:30am - - - - - NE 19 24 10 13 - - -
21/11:00am - - - - - N 13 22 7 12 - - -
21/10:30am - - - - - NNE 15 22 8 12 - - -
21/10:00am - - - - - NE 13 20 7 11 - - -
21/09:30am - - - - - NE 15 19 8 10 - - -
21/09:00am - - - - - NE 15 17 8 9 - - -
21/08:30am - - - - - NE 20 24 11 13 - - -
21/08:00am - - - - - ENE 17 22 9 12 - - -
21/07:30am - - - - - SSE 9 11 5 6 - - -
21/07:00am - - - - - S 9 11 5 6 - - -
21/06:30am - - - - - SSW 17 19 9 10 - - -
21/06:00am - - - - - SSW 13 15 7 8 - - -
21/05:30am - - - - - SW 9 13 5 7 - - -
21/05:00am - - - - - SSE 6 6 3 3 - - -
21/04:30am - - - - - S 9 11 5 6 - - -
21/04:00am - - - - - S 17 20 9 11 - - -
21/03:30am - - - - - SSE 20 24 11 13 - - -
21/03:00am - - - - - S 20 24 11 13 - - -
21/02:30am - - - - - S 24 28 13 15 - - -
21/02:00am - - - - - SSW 13 17 7 9 - - -
21/01:30am - - - - - S 20 26 11 14 - - -
21/01:00am - - - - - SE 13 15 7 8 - - -
21/12:30am - - - - - SSW 6 7 3 4 - - -
21/12:00am - - - - - SW 17 24 9 13 - - -
 
Date/Time
EST
Temp
°C
App
Temp
°C
Dew
Point
°C
Rel
Hum
%
Delta-T
°C
Wind Press
QNH
hPa
Press
MSL
hPa
Rain since
9am
mm
Dir  Spd
km/h
Gust
km/h
Spd
kts
Gust
kts
20/11:30pm - - - - - SSE 17 35 9 19 - - -
20/11:00pm - - - - - WNW 9 19 5 10 - - -
20/10:30pm - - - - - E 9 15 5 8 - - -
20/10:00pm - - - - - ENE 33 43 18 23 - - -
20/09:43pm - - - - - ENE 43 52 23 28 - - -
20/09:30pm - - - - - NE 32 41 17 22 - - -
20/09:27pm - - - - - NNE 28 41 15 22 - - -
20/09:00pm - - - - - WSW 9 17 5 9 - - -
20/08:35pm - - - - - ESE 9 41 5 22 - - -
20/08:30pm - - - - - ESE 7 9 4 5 - - -
20/08:00pm - - - - - SE 19 20 10 11 - - -
20/07:30pm - - - - - SE 13 17 7 9 - - -
20/07:00pm - - - - - ESE 11 15 6 8 - - -
20/06:30pm - - - - - ENE 15 20 8 11 - - -
20/06:00pm - - - - - ENE 17 20 9 11 - - -
20/05:30pm - - - - - NE 19 24 10 13 - - -
20/05:00pm - - - - - NE 20 24 11 13 - - -
20/04:30pm - - - - - NNE 20 26 11 14 - - -
20/04:00pm - - - - - NNE 20 28 11 15 - - -
20/03:30pm - - - - - NNE 24 33 13 18 - - -
20/03:00pm - - - - - NNE 26 33 14 18 - - -
20/02:30pm - - - - - NNE 22 26 12 14 - - -
20/02:00pm - - - - - NNE 24 32 13 17 - - -
20/01:30pm - - - - - NNE 24 32 13 17 - - -
20/01:00pm - - - - - NE 15 20 8 11 - - -
20/12:30pm - - - - - N 19 26 10 14 - - -
20/12:00pm - - - - - NE 4 7 2 4 - - -
20/11:30am - - - - - SE 7 9 4 5 - - -
20/11:00am - - - - - SE 6 9 3 5 - - -
20/10:30am - - - - - SE 11 13 6 7 - - -
20/10:00am - - - - - SE 15 19 8 10 - - -
20/09:30am - - - - - SE 17 20 9 11 - - -
20/09:00am - - - - - S 17 20 9 11 - - -
20/08:30am - - - - - S 22 24 12 13 - - -
20/08:00am - - - - - S 22 24 12 13 - - -
20/07:30am - - - - - S 19 20 10 11 - - -
20/07:00am - - - - - S 15 17 8 9 - - -
20/06:30am - - - - - S 13 17 7 9 - - -
20/06:00am - - - - - WSW 2 7 1 4 - - -
20/05:30am - - - - - WSW 6 9 3 5 - - -
20/05:00am - - - - - WSW 2 4 1 2 - - -
20/04:30am - - - - - W 6 7 3 4 - - -
20/04:00am - - - - - W 9 11 5 6 - - -
20/03:30am - - - - - W 11 13 6 7 - - -
20/03:00am - - - - - W 11 13 6 7 - - -
20/02:30am - - - - - W 13 17 7 9 - - -
20/02:00am - - - - - NNE 2 6 1 3 - - -
20/01:30am - - - - - ESE 7 13 4 7 - - -
20/01:00am - - - - - SSW 13 15 7 8 - - -
20/12:30am - - - - - S 17 20 9 11 - - -
20/12:00am - - - - - S 24 30 13 16 - - -
 
Date/Time
EST
Temp
°C
App
Temp
°C
Dew
Point
°C
Rel
Hum
%
Delta-T
°C
Wind Press
QNH
hPa
Press
MSL
hPa
Rain since
9am
mm
Dir  Spd
km/h
Gust
km/h
Spd
kts
Gust
kts
19/11:30pm - - - - - S 9 11 5 6 - - -
19/11:00pm - - - - - S 7 9 4 5 - - -
19/10:30pm - - - - - S 7 9 4 5 - - -
19/10:00pm - - - - - SSE 6 6 3 3 - - -
19/09:30pm - - - - - N 2 4 1 2 - - -
19/09:00pm - - - - - N 7 9 4 5 - - -
19/08:30pm - - - - - E 6 7 3 4 - - -
19/08:00pm - - - - - ESE 6 9 3 5 - - -
19/07:30pm - - - - - SE 6 7 3 4 - - -
19/07:00pm - - - - - SE 7 13 4 7 - - -
19/06:30pm - - - - - ESE 15 19 8 10 - - -
19/06:00pm - - - - - E 15 19 8 10 - - -
19/05:30pm - - - - - ESE 13 15 7 8 - - -
19/05:00pm - - - - - NE 15 19 8 10 - - -
19/04:30pm - - - - - NNE 9 13 5 7 - - -
19/04:00pm - - - - - NNE 9 11 5 6 - - -
19/03:30pm - - - - - NE 11 13 6 7 - - -
19/03:00pm - - - - - WSW 4 6 2 3 - - -
19/02:30pm - - - - - E 6 7 3 4 - - -
19/02:00pm - - - - - NE 6 7 3 4 - - -
19/01:30pm - - - - - N 7 15 4 8 - - -
19/01:00pm - - - - - N 7 13 4 7 - - -
19/12:30pm - - - - - NNE 6 7 3 4 - - -
19/12:00pm - - - - - N 6 9 3 5 - - -
19/11:30am - - - - - CALM 0 0 0 0 - - -
19/11:00am - - - - - WSW 4 6 2 3 - - -
19/10:30am - - - - - SSE 2 2 1 1 - - -
19/10:00am - - - - - S 2 6 1 3 - - -
19/09:30am - - - - - S 7 11 4 6 - - -
19/09:00am - - - - - S 7 11 4 6 - - -
19/08:30am - - - - - S 9 13 5 7 - - -
19/08:00am - - - - - S 11 13 6 7 - - -
19/07:30am - - - - - SW 17 19 9 10 - - -
19/07:00am - - - - - SSW 15 22 8 12 - - -

Latest Capital City Observations: Canberra | Sydney | Melbourne | Brisbane | Adelaide | Perth | Hobart | Darwin

Other formats

Comma delimited format used in spreadsheet applications
http://www.bom.gov.au/fwo/IDQ60901/IDQ60901.94591.axf

JavaScript Object Notation format (JSON) in row-major order
http://www.bom.gov.au/fwo/IDQ60901/IDQ60901.94591.json

Data quality

Most of these data are generated automatically and are frequently updated. Quality checks on data are not normally performed. It is possible for incorrect values to appear. Refer to information at About Latest Weather Observations and please check the disclaimer before using these data.